Time;durP1;ratioP1;P1;durP2;ratioP2;P2;SDS_P1;SDS_P2;PMS_P1;PMS_P2;Temp;Humidity;BMP_temperature;BMP_pressure;BME280_temperature;BME280_humidity;BME280_pressure;Samples;Min_cycle;Max_cycle;Signal;HPM_P1;HPM_P2
2022/03/21 00:02:05;;;;;;;6.10;1.60;;;3.20;99.90;;;;;;4955122;28;20023;-72
2022/03/21 00:04:31;;;;;;;4.15;1.55;;;3.10;99.90;;;;;;4955268;28;20031;-72
2022/03/21 00:06:57;;;;;;;3.60;1.58;;;3.10;99.90;;;;;;4955682;28;20034;-72
2022/03/21 00:09:23;;;;;;;5.75;1.60;;;3.10;99.90;;;;;;4955098;29;20034;-72
2022/03/21 00:11:50;;;;;;;2.88;1.40;;;3.00;99.90;;;;;;4955062;29;20121;-72
2022/03/21 00:14:16;;;;;;;6.25;1.85;;;3.00;99.90;;;;;;4954896;28;20031;-72
2022/03/21 00:16:43;;;;;;;5.13;1.50;;;3.00;99.90;;;;;;4954903;28;20024;-72
2022/03/21 00:19:09;;;;;;;5.90;1.88;;;2.90;99.90;;;;;;4954860;28;20082;-72
2022/03/21 00:21:35;;;;;;;9.05;1.55;;;2.90;99.90;;;;;;4954922;28;20471;-72
2022/03/21 00:24:02;;;;;;;5.45;1.40;;;2.90;99.90;;;;;;4954785;28;20038;-72
2022/03/21 00:26:27;;;;;;;2.72;1.30;;;2.90;99.90;;;;;;4954613;28;20035;-72
2022/03/21 00:28:53;;;;;;;3.65;1.67;;;2.90;99.90;;;;;;4954835;29;20027;-72
2022/03/21 00:31:19;;;;;;;6.13;1.25;;;2.90;99.90;;;;;;4954771;28;20467;-74
2022/03/21 00:33:45;;;;;;;8.57;1.70;;;2.90;99.90;;;;;;4953428;29;20067;-77
2022/03/21 00:36:11;;;;;;;3.95;2.15;;;2.80;99.90;;;;;;4954681;28;20034;-77
2022/03/21 00:38:37;;;;;;;5.35;1.80;;;2.80;99.90;;;;;;4954351;29;20055;-77
2022/03/21 00:41:06;;;;;;;5.63;1.80;;;2.80;99.90;;;;;;4954422;29;20054;-78
2022/03/21 00:43:32;;;;;;;3.90;1.45;;;2.80;99.90;;;;;;4954708;29;20031;-78
2022/03/21 00:45:57;;;;;;;4.30;1.63;;;2.70;99.90;;;;;;4954389;28;20027;-78
2022/03/21 00:48:25;;;;;;;10.57;2.00;;;2.70;99.90;;;;;;4954420;29;20499;-77
2022/03/21 00:50:52;;;;;;;4.97;1.88;;;2.70;99.90;;;;;;4954389;28;20534;-77
2022/03/21 00:53:18;;;;;;;9.88;2.13;;;2.70;99.90;;;;;;4954444;28;20035;-77
2022/03/21 00:55:46;;;;;;;8.05;1.85;;;2.50;99.90;;;;;;4954182;28;20023;-78
2022/03/21 00:58:12;;;;;;;13.23;2.08;;;2.40;99.90;;;;;;4954372;28;20050;-78
2022/03/21 01:00:38;;;;;;;19.02;1.92;;;2.40;99.90;;;;;;4954234;28;20039;-78
2022/03/21 01:03:04;;;;;;;11.65;2.00;;;2.40;99.90;;;;;;4954014;28;20031;-76
2022/03/21 01:05:31;;;;;;;7.35;1.60;;;2.40;99.90;;;;;;4954176;28;20031;-76
2022/03/21 01:07:58;;;;;;;7.57;1.67;;;2.40;99.90;;;;;;4954169;28;20110;-76
2022/03/21 01:10:26;;;;;;;4.18;1.50;;;2.30;99.90;;;;;;4954116;28;20035;-76
2022/03/21 01:12:52;;;;;;;5.13;1.63;;;2.30;99.90;;;;;;4953973;28;20042;-76
2022/03/21 01:15:20;;;;;;;5.38;1.65;;;2.30;99.90;;;;;;4954177;28;20031;-76
2022/03/21 01:17:47;;;;;;;6.97;1.65;;;2.20;99.90;;;;;;4953763;28;20039;-77
2022/03/21 01:20:15;;;;;;;13.05;1.80;;;2.20;99.90;;;;;;4953827;28;20057;-77
2022/03/21 01:22:41;;;;;;;8.70;1.52;;;2.20;99.90;;;;;;4954155;28;20035;-77
2022/03/21 01:25:08;;;;;;;7.13;2.13;;;2.20;99.90;;;;;;4953794;28;20036;-76
2022/03/21 01:27:35;;;;;;;4.10;1.42;;;2.20;99.90;;;;;;4953882;28;20070;-76
2022/03/21 01:30:09;;;;;;;6.43;1.58;;;2.10;99.90;;;;;;4953737;29;20023;-75
2022/03/21 01:32:35;;;;;;;3.85;1.40;;;2.10;99.90;;;;;;4954172;28;20042;-75
2022/03/21 01:35:02;;;;;;;3.85;1.90;;;2.10;99.90;;;;;;4953814;28;20016;-76
2022/03/21 01:37:28;;;;;;;10.13;1.52;;;2.10;99.90;;;;;;4953572;28;20090;-76
2022/03/21 01:39:54;;;;;;;2.38;1.27;;;2.10;99.90;;;;;;4956783;28;20056;-76
2022/03/21 01:42:20;;;;;;;5.85;1.50;;;2.10;99.90;;;;;;4957680;29;20038;-76
2022/03/21 01:44:49;;;;;;;5.05;1.30;;;2.00;99.90;;;;;;4957826;28;20023;-75
2022/03/21 01:47:15;;;;;;;6.63;1.45;;;2.00;99.90;;;;;;4957639;28;20111;-76
2022/03/21 01:49:40;;;;;;;3.72;1.63;;;2.00;99.90;;;;;;4957840;29;20122;-76
2022/03/21 01:52:06;;;;;;;2.15;1.38;;;2.00;99.90;;;;;;4957510;29;20045;-75
2022/03/21 01:57:16;;;;;;;6.90;1.40;;;2.00;99.90;;;;;;4957495;29;20035;-75
2022/03/21 01:59:42;;;;;;;4.88;1.30;;;2.00;99.90;;;;;;4957778;28;20035;-73
2022/03/21 02:02:08;;;;;;;15.80;1.70;;;2.10;99.90;;;;;;4955986;29;20031;-73
2022/03/21 02:04:34;;;;;;;10.90;1.63;;;2.10;99.90;;;;;;4957655;28;20116;-75
2022/03/21 02:07:01;;;;;;;40.72;2.83;;;2.10;99.90;;;;;;4957358;28;20031;-75
2022/03/21 02:09:29;;;;;;;19.15;1.92;;;2.00;99.90;;;;;;4957584;28;20051;-75
2022/03/21 02:11:56;;;;;;;9.82;1.90;;;2.00;99.90;;;;;;4957439;28;20027;-75
2022/03/21 02:14:22;;;;;;;15.25;1.77;;;1.90;99.90;;;;;;4957078;28;20027;-75
2022/03/21 02:16:48;;;;;;;10.65;1.55;;;1.90;99.90;;;;;;4957006;28;20043;-76
2022/03/21 02:19:20;;;;;;;11.43;1.83;;;1.80;99.90;;;;;;4956958;28;20027;-76
2022/03/21 02:22:05;;;;;;;9.20;2.50;;;1.90;99.90;;;;;;4957059;28;20035;-74
2022/03/21 02:56:02;;;;;;;6.45;1.45;;;1.50;99.90;;;;;;4956183;29;20138;-72
2022/03/21 02:58:28;;;;;;;7.50;1.17;;;1.50;99.90;;;;;;4956205;28;20035;-73
2022/03/21 03:01:05;;;;;;;5.95;1.38;;;1.60;99.90;;;;;;4956422;29;20027;-75
2022/03/21 03:37:13;;;;;;;3.80;1.45;;;1.20;99.90;;;;;;5737776;23;19922;-72
2022/03/21 03:39:39;;;;;;;6.22;1.90;;;1.20;99.90;;;;;;4975020;28;20039;-72
2022/03/21 03:42:05;;;;;;;9.32;1.25;;;1.20;99.90;;;;;;4974859;28;20049;-73
2022/03/21 03:44:30;;;;;;;15.48;2.03;;;1.20;99.90;;;;;;4974892;28;20039;-73
2022/03/21 03:46:57;;;;;;;10.85;1.50;;;1.20;99.90;;;;;;4974371;28;20030;-73
2022/03/21 03:49:23;;;;;;;5.45;1.30;;;1.20;99.90;;;;;;4955502;28;20031;-74
2022/03/21 03:51:49;;;;;;;17.00;1.75;;;1.20;99.90;;;;;;4956078;29;20035;-73
2022/03/21 03:54:15;;;;;;;13.35;1.83;;;1.10;99.90;;;;;;4955353;29;20034;-73
2022/03/21 03:56:41;;;;;;;15.43;1.92;;;1.10;99.90;;;;;;4955423;29;20027;-73
2022/03/21 03:59:07;;;;;;;7.95;1.60;;;1.10;99.90;;;;;;4955344;29;20042;-73
2022/03/21 04:01:32;;;;;;;6.00;1.20;;;1.10;99.90;;;;;;4954601;28;20019;-74
2022/03/21 04:04:00;;;;;;;6.07;1.20;;;1.10;99.90;;;;;;4955053;29;20027;-74
2022/03/21 04:06:26;;;;;;;7.97;1.30;;;1.10;99.90;;;;;;4955265;29;20098;-74
2022/03/21 04:08:52;;;;;;;4.35;1.58;;;1.00;99.90;;;;;;4955040;29;20577;-73
2022/03/21 04:11:19;;;;;;;7.82;1.30;;;1.00;99.90;;;;;;4954901;29;20039;-73
2022/03/21 04:13:46;;;;;;;11.30;1.45;;;0.90;99.90;;;;;;4955279;29;20086;-75
2022/03/21 04:16:14;;;;;;;9.02;1.30;;;0.90;99.90;;;;;;4954897;29;20090;-75
2022/03/21 04:18:40;;;;;;;5.25;1.55;;;0.90;99.90;;;;;;4954752;29;20050;-73
2022/03/21 04:21:06;;;;;;;8.80;1.30;;;0.90;99.90;;;;;;4954734;29;20027;-73
2022/03/21 04:23:31;;;;;;;1.75;1.20;;;0.90;99.90;;;;;;4954705;29;20086;-73
2022/03/21 04:25:58;;;;;;;3.20;1.30;;;0.90;99.90;;;;;;4954722;29;20020;-73
2022/03/21 04:28:24;;;;;;;8.63;1.33;;;0.80;99.90;;;;;;4954423;29;20036;-75
2022/03/21 04:30:50;;;;;;;6.80;1.40;;;0.80;99.90;;;;;;4955072;29;20023;-75
2022/03/21 04:33:15;;;;;;;8.90;1.20;;;0.80;99.90;;;;;;4954875;29;20031;-75
2022/03/21 04:35:42;;;;;;;15.20;2.08;;;0.80;99.90;;;;;;4954660;29;20027;-75
2022/03/21 04:38:17;;;;;;;10.38;1.77;;;0.90;99.90;;;;;;4954106;28;20622;-75
2022/03/21 04:40:46;;;;;;;31.55;2.10;;;0.90;99.90;;;;;;4954968;28;20054;-73
2022/03/21 04:43:13;;;;;;;6.18;1.50;;;0.90;99.90;;;;;;4954670;28;20359;-73
2022/03/21 04:45:40;;;;;;;15.43;1.55;;;0.90;99.90;;;;;;4954844;28;20087;-76
2022/03/21 04:48:06;;;;;;;7.20;1.45;;;0.90;99.90;;;;;;4954392;28;20118;-76
2022/03/21 04:50:33;;;;;;;19.65;2.65;;;0.90;99.90;;;;;;4954833;28;20111;-76
2022/03/21 04:52:59;;;;;;;3.30;1.40;;;0.90;99.90;;;;;;4954732;28;20031;-76
2022/03/21 04:55:26;;;;;;;7.78;1.33;;;0.80;99.90;;;;;;4954295;28;20474;-76
2022/03/21 04:57:52;;;;;;;18.92;1.98;;;0.80;99.90;;;;;;4954234;28;20082;-76
2022/03/21 05:00:18;;;;;;;10.25;1.75;;;0.80;99.90;;;;;;4954239;28;20027;-76
2022/03/21 05:02:43;;;;;;;21.25;2.00;;;0.90;99.90;;;;;;4954336;28;20060;-76
2022/03/21 05:05:09;;;;;;;25.77;2.35;;;0.90;99.90;;;;;;4954153;29;20026;-77
2022/03/21 05:07:43;;;;;;;35.45;2.65;;;0.90;99.90;;;;;;4954286;28;20031;-73
2022/03/21 05:10:10;;;;;;;23.83;3.00;;;0.90;99.90;;;;;;4954014;28;20106;-73
2022/03/21 05:12:36;;;;;;;37.58;3.33;;;0.90;99.90;;;;;;4954080;28;20528;-72
2022/03/21 05:15:04;;;;;;;33.65;3.13;;;0.90;99.90;;;;;;4954116;28;20086;-72
2022/03/21 05:17:30;;;;;;;28.63;2.55;;;1.00;99.90;;;;;;4953874;28;20102;-76
2022/03/21 05:19:56;;;;;;;17.30;2.33;;;0.90;99.90;;;;;;4954376;29;20023;-76
2022/03/21 05:22:22;;;;;;;17.30;2.10;;;1.00;99.90;;;;;;4953802;28;20078;-73
2022/03/21 05:35:55;;;;;;;26.80;2.28;;;1.20;99.90;;;;;;4953844;29;20055;-69
2022/03/21 05:38:31;;;;;;;31.08;2.47;;;1.20;99.90;;;;;;4953134;28;20050;-71
2022/03/21 05:41:00;;;;;;;48.25;3.05;;;1.40;99.90;;;;;;4953627;29;20110;-73
2022/03/21 05:43:30;;;;;;;25.15;2.63;;;1.60;99.90;;;;;;4953144;28;20034;-71
2022/03/21 05:45:56;;;;;;;;;;;1.60;99.90;;;;;;4953764;28;20023;-71
2022/03/21 05:51:06;;;;;;;69.03;21.45;;;2.40;99.90;;;;;;4969897;28;20034;-74
2022/03/21 05:53:33;;;;;;;75.30;14.95;;;3.10;99.90;;;;;;4971928;28;20019;-77
2022/03/21 05:56:00;;;;;;;101.05;26.35;;;3.70;99.90;;;;;;4971899;28;20082;-73
2022/03/21 05:58:29;;;;;;;61.45;10.90;;;4.20;99.90;;;;;;4970579;28;20042;-73
2022/03/21 06:00:55;;;;;;;47.25;12.20;;;4.60;99.90;;;;;;4972151;28;20033;-74
2022/03/21 06:03:21;;;;;;;89.70;19.60;;;5.00;99.90;;;;;;4961191;28;20478;-71
2022/03/21 06:05:47;;;;;;;34.33;10.73;;;5.40;99.90;;;;;;4972493;28;20035;-71
2022/03/21 06:08:13;;;;;;;19.42;4.88;;;5.60;99.90;;;;;;4952277;28;20034;-71
2022/03/21 06:10:39;;;;;;;49.00;13.73;;;5.90;99.90;;;;;;4961525;28;21250;-70
2022/03/21 06:13:05;;;;;;;57.88;16.83;;;6.10;99.90;;;;;;4968887;28;20027;-71
2022/03/21 06:15:37;;;;;;;41.35;16.00;;;6.40;99.90;;;;;;4971186;28;20031;-71
2022/03/21 06:18:10;;;;;;;15.52;5.22;;;6.70;99.90;;;;;;4970939;28;20074;-70
2022/03/21 06:20:37;;;;;;;12.10;3.63;;;6.90;99.90;;;;;;4972672;28;20121;-73
2022/03/21 06:23:03;;;;;;;14.50;6.80;;;7.10;98.10;;;;;;4972622;28;20434;-73
2022/03/21 06:25:29;;;;;;;16.08;5.28;;;7.30;95.70;;;;;;4974226;28;20030;-71
2022/03/21 06:27:55;;;;;;;17.15;3.13;;;7.50;95.20;;;;;;4974829;28;20074;-71
2022/03/21 06:30:21;;;;;;;6.78;1.70;;;7.60;92.70;;;;;;4976272;28;20034;-71
2022/03/21 06:32:47;;;;;;;5.30;2.03;;;7.80;91.30;;;;;;4976196;28;20023;-72
2022/03/21 06:35:13;;;;;;;2.60;1.00;;;8.00;90.00;;;;;;4976376;28;20035;-70
2022/03/21 06:37:40;;;;;;;4.15;1.05;;;8.10;88.90;;;;;;4975732;28;20090;-70
2022/03/21 06:40:08;;;;;;;5.47;0.98;;;8.30;87.60;;;;;;4976323;28;20061;-71
2022/03/21 06:42:34;;;;;;;8.93;1.20;;;8.50;85.10;;;;;;4970915;28;20019;-71
2022/03/21 06:45:00;;;;;;;32.33;1.77;;;8.60;84.00;;;;;;4975868;28;20065;-71
2022/03/21 06:47:26;;;;;;;9.07;1.27;;;8.70;83.30;;;;;;4975752;28;20063;-71
2022/03/21 06:49:52;;;;;;;4.97;0.90;;;8.80;81.90;;;;;;4975834;28;20026;-70
2022/03/21 06:52:18;;;;;;;5.18;0.90;;;8.90;81.30;;;;;;4975473;28;20415;-71
2022/03/21 06:54:48;;;;;;;10.90;1.05;;;8.90;80.00;;;;;;4975750;28;20023;-70
2022/03/21 06:57:18;;;;;;;9.02;1.33;;;9.00;79.00;;;;;;4975506;28;20027;-74
2022/03/21 06:59:47;;;;;;;1.83;0.93;;;9.10;78.60;;;;;;4975594;28;20038;-67
2022/03/21 07:02:14;;;;;;;3.53;0.85;;;9.20;78.20;;;;;;4975652;28;20394;-78
2022/03/21 07:04:40;;;;;;;15.70;1.50;;;9.20;77.50;;;;;;4975773;28;20061;-80
2022/03/21 07:07:06;;;;;;;10.05;1.10;;;9.30;77.40;;;;;;4975750;28;20462;-78
2022/03/21 07:09:32;;;;;;;8.00;1.10;;;9.30;76.20;;;;;;4975254;28;20038;-81
2022/03/21 07:11:58;;;;;;;13.65;1.33;;;9.30;77.20;;;;;;4975393;28;20031;-73
2022/03/21 07:14:23;;;;;;;5.38;0.90;;;9.50;79.30;;;;;;4974008;28;20062;-70
2022/03/21 07:16:49;;;;;;;4.18;1.10;;;9.90;84.50;;;;;;4975431;28;20050;-70
2022/03/21 07:19:15;;;;;;;10.23;1.00;;;9.90;77.10;;;;;;4975003;28;20041;-67
2022/03/21 07:21:41;;;;;;;2.28;0.70;;;9.90;78.50;;;;;;4975329;28;20026;-75
2022/03/21 07:24:07;;;;;;;3.83;0.75;;;9.80;74.70;;;;;;4974639;28;20035;-74
2022/03/21 07:26:33;;;;;;;11.15;1.20;;;9.70;74.00;;;;;;4975028;28;20046;-77
2022/03/21 07:29:00;;;;;;;7.55;1.45;;;9.60;74.10;;;;;;4975266;28;20030;-73
2022/03/21 07:31:26;;;;;;;2.20;0.70;;;9.50;74.00;;;;;;4975236;28;20541;-80
2022/03/21 07:33:51;;;;;;;3.78;0.80;;;9.50;73.70;;;;;;4974959;28;20066;-63
2022/03/21 07:36:17;;;;;;;7.47;1.77;;;9.40;73.70;;;;;;4973807;28;20066;-73
2022/03/21 07:38:43;;;;;;;7.45;0.82;;;9.40;73.80;;;;;;4974564;28;20138;-73
2022/03/21 07:41:09;;;;;;;4.38;0.93;;;9.40;73.30;;;;;;4974961;28;20023;-73
2022/03/21 07:43:35;;;;;;;4.47;0.82;;;9.30;73.00;;;;;;4974829;28;20031;-73
2022/03/21 07:48:46;;;;;;;19.30;1.38;;;9.20;73.40;;;;;;4974609;28;20069;-73
2022/03/21 07:51:12;;;;;;;7.50;0.98;;;9.10;73.60;;;;;;4974617;28;20510;-69
2022/03/21 07:53:38;;;;;;;7.50;1.17;;;9.10;73.50;;;;;;4974047;28;20462;-70
2022/03/21 07:56:05;;;;;;;4.38;0.90;;;9.10;73.50;;;;;;4974436;28;20034;-72
2022/03/21 07:58:34;;;;;;;34.03;1.48;;;9.10;73.50;;;;;;4974000;28;20471;-73
2022/03/21 08:01:00;;;;;;;3.35;0.77;;;9.00;73.50;;;;;;4974384;28;20030;-70
2022/03/21 08:03:27;;;;;;;3.08;0.90;;;9.00;73.40;;;;;;4974152;28;20376;-71
2022/03/21 08:05:54;;;;;;;2.85;1.02;;;9.00;73.40;;;;;;4974285;28;20502;-71
2022/03/21 08:08:21;;;;;;;3.58;0.70;;;9.00;73.10;;;;;;4974153;28;20031;-71
2022/03/21 08:10:47;;;;;;;6.72;0.98;;;9.00;72.80;;;;;;4974009;28;20540;-73
2022/03/21 08:13:19;;;;;;;4.10;0.95;;;8.90;73.10;;;;;;4973868;28;20110;-71
2022/03/21 08:15:45;;;;;;;19.40;1.30;;;8.90;72.40;;;;;;4974286;28;20107;-68
2022/03/21 08:18:12;;;;;;;5.25;0.82;;;8.90;72.10;;;;;;4973996;28;20401;-68
2022/03/21 08:20:40;;;;;;;8.80;1.00;;;8.90;71.90;;;;;;4974228;28;20395;-73
2022/03/21 08:23:11;;;;;;;32.72;2.92;;;8.90;72.00;;;;;;4970794;28;20553;-71
2022/03/21 08:25:38;;;;;;;27.55;2.00;;;8.90;71.70;;;;;;4974113;28;20039;-71
2022/03/21 08:28:06;;;;;;;2.80;0.90;;;9.00;71.70;;;;;;4973979;28;20030;-72
2022/03/21 08:30:35;;;;;;;5.38;1.08;;;9.00;70.90;;;;;;4973184;28;20025;-72
2022/03/21 08:33:02;;;;;;;3.03;0.98;;;9.20;98.80;;;;;;4973042;28;20483;-73
2022/03/21 08:35:30;;;;;;;24.58;1.95;;;9.50;99.90;;;;;;4970759;28;20031;-73
2022/03/21 08:37:56;;;;;;;8.05;1.10;;;9.70;94.80;;;;;;4972114;28;20061;-73
2022/03/21 08:40:22;;;;;;;5.78;1.05;;;9.90;97.30;;;;;;4973220;28;20027;-73
2022/03/21 08:42:48;;;;;;;18.33;1.20;;;10.10;94.20;;;;;;4973500;28;20035;-71
2022/03/21 08:45:15;;;;;;;4.82;1.17;;;10.20;91.20;;;;;;4972022;28;20062;-72
2022/03/21 08:47:44;;;;;;;9.07;1.27;;;11.10;99.50;;;;;;4973422;28;20046;-71
2022/03/21 08:50:11;;;;;;;11.25;1.38;;;11.20;85.00;;;;;;4973567;28;20033;-72
2022/03/21 08:52:36;;;;;;;1.42;0.70;;;11.80;82.60;;;;;;4973504;28;20022;-72
2022/03/21 08:55:04;;;;;;;4.38;0.70;;;11.30;68.10;;;;;;4973706;28;20158;-72
2022/03/21 08:57:31;;;;;;;4.53;0.80;;;10.80;66.40;;;;;;4973226;28;20118;-72
2022/03/21 08:59:57;;;;;;;1.38;0.70;;;10.40;65.20;;;;;;4973643;28;20035;-72
2022/03/21 09:02:23;;;;;;;7.63;0.90;;;10.10;65.70;;;;;;4973515;28;20118;-72
2022/03/21 09:04:48;;;;;;;2.72;0.60;;;10.00;65.20;;;;;;4973715;28;20447;-72
2022/03/21 09:07:14;;;;;;;2.45;0.75;;;9.90;65.00;;;;;;4973422;28;20158;-72
2022/03/21 09:09:41;;;;;;;2.60;0.80;;;9.80;63.70;;;;;;4973243;28;20060;-72
2022/03/21 09:12:07;;;;;;;2.70;0.77;;;9.70;63.80;;;;;;4973384;28;20030;-72
2022/03/21 09:14:34;;;;;;;3.45;0.90;;;9.70;63.40;;;;;;4973502;28;20489;-72
2022/03/21 09:17:00;;;;;;;1.75;0.80;;;9.70;62.90;;;;;;4973310;28;20050;-72
2022/03/21 09:19:27;;;;;;;4.13;0.82;;;9.70;62.30;;;;;;4973306;28;20077;-73
2022/03/21 09:21:54;;;;;;;3.97;0.90;;;9.60;61.60;;;;;;4973328;28;20114;-72
2022/03/21 09:24:20;;;;;;;4.20;0.82;;;9.60;61.50;;;;;;4973314;28;20490;-72
2022/03/21 09:26:45;;;;;;;2.88;0.93;;;9.60;61.10;;;;;;4972019;28;20026;-72
2022/03/21 09:29:11;;;;;;;4.03;1.00;;;9.60;59.90;;;;;;4973395;28;20026;-72
2022/03/21 09:31:40;;;;;;;8.80;1.02;;;9.60;60.20;;;;;;4972918;28;20037;-72
2022/03/21 09:34:08;;;;;;;1.10;1.00;;;9.60;60.00;;;;;;4972784;28;20198;-74
2022/03/21 09:36:33;;;;;;;5.57;0.90;;;10.10;81.20;;;;;;4972376;28;20385;-71
2022/03/21 09:38:59;;;;;;;1.35;0.60;;;10.70;66.20;;;;;;4972675;28;20042;-71
2022/03/21 09:41:30;;;;;;;6.25;0.93;;;10.60;62.20;;;;;;4972627;28;20031;-71
2022/03/21 09:44:00;;;;;;;25.35;1.45;;;10.40;61.00;;;;;;4971652;28;20065;-73
2022/03/21 09:46:26;;;;;;;4.07;1.00;;;10.30;60.20;;;;;;4972913;28;20049;-67
2022/03/21 09:48:55;;;;;;;9.52;1.33;;;10.80;84.40;;;;;;4973004;28;20282;-66
2022/03/21 09:51:28;;;;;;;9.25;1.13;;;11.20;67.50;;;;;;4972952;28;20031;-66
2022/03/21 09:53:55;;;;;;;1.67;0.85;;;10.90;60.00;;;;;;4972825;28;20023;-66
2022/03/21 09:56:22;;;;;;;32.60;1.13;;;10.70;58.30;;;;;;4972797;28;20023;-66
2022/03/21 09:58:48;;;;;;;3.88;0.90;;;10.50;57.90;;;;;;4972734;28;20038;-66
2022/03/21 10:01:14;;;;;;;1.75;0.90;;;10.40;56.60;;;;;;4975425;28;20031;-66
2022/03/21 10:03:41;;;;;;;6.53;1.08;;;10.30;56.20;;;;;;4967939;28;20039;-65
2022/03/21 10:06:29;;;;;;;7.80;0.98;;;10.30;55.50;;;;;;4973063;28;20023;-66
2022/03/21 10:09:07;;;;;;;1.55;0.68;;;10.30;54.90;;;;;;4975906;28;20037;-70
2022/03/21 10:11:34;;;;;;;3.78;0.85;;;10.20;54.90;;;;;;4977258;28;20382;-71
2022/03/21 10:14:24;;;;;;;3.58;0.80;;;10.20;55.50;;;;;;4976665;28;20398;-72
2022/03/21 10:16:57;;;;;;;3.88;0.80;;;10.20;54.80;;;;;;4976767;28;20089;-72
2022/03/21 10:19:23;;;;;;;5.63;0.73;;;10.20;55.40;;;;;;4976546;28;20035;-72
2022/03/21 10:22:07;;;;;;;3.20;0.90;;;10.20;54.80;;;;;;4976196;28;20093;-70
2022/03/21 10:24:41;;;;;;;8.25;0.90;;;10.20;54.60;;;;;;4976156;28;20105;-70
2022/03/21 10:27:25;;;;;;;9.35;0.95;;;10.20;55.00;;;;;;4975940;28;20027;-71
2022/03/21 10:29:53;;;;;;;2.70;0.77;;;10.20;54.60;;;;;;4975956;28;20091;-71
2022/03/21 10:32:35;;;;;;;3.60;0.77;;;10.20;54.70;;;;;;4975376;28;20082;-71
2022/03/21 10:35:17;;;;;;;1.95;0.65;;;10.20;54.00;;;;;;4975923;28;20062;-70
2022/03/21 10:37:44;;;;;;;2.60;0.77;;;10.10;54.30;;;;;;4975389;28;20055;-75
2022/03/21 10:40:31;;;;;;;2.25;0.77;;;10.10;54.10;;;;;;4975820;28;20498;-73
2022/03/21 10:43:06;;;;;;;1.15;0.60;;;10.10;54.20;;;;;;4975851;28;20023;-73
2022/03/21 10:45:35;;;;;;;16.08;1.52;;;10.20;54.10;;;;;;4975482;28;20505;-74
2022/03/21 10:48:04;;;;;;;9.10;1.00;;;10.20;54.50;;;;;;4975905;28;20034;-73
2022/03/21 10:50:35;;;;;;;7.22;1.27;;;10.20;54.70;;;;;;4974883;28;20118;-73
2022/03/21 10:53:23;;;;;;;1.55;0.80;;;10.20;54.80;;;;;;4975893;28;20045;-73
2022/03/21 10:55:53;;;;;;;13.32;1.05;;;10.20;54.20;;;;;;4975781;28;20487;-74
2022/03/21 10:58:33;;;;;;;0.98;0.63;;;10.20;54.70;;;;;;4976036;28;20046;-73
2022/03/21 11:01:15;;;;;;;8.25;1.58;;;10.20;54.00;;;;;;4975910;28;20031;-74
2022/03/21 11:03:43;;;;;;;5.10;0.73;;;10.20;53.70;;;;;;4975392;28;20023;-73
2022/03/21 11:06:10;;;;;;;7.05;0.93;;;10.20;54.40;;;;;;4975573;28;20029;-73
2022/03/21 11:08:37;;;;;;;8.00;0.90;;;10.20;54.70;;;;;;4974218;28;20030;-74
2022/03/21 11:11:04;;;;;;;4.38;0.80;;;10.20;54.30;;;;;;4975608;28;20426;-73
2022/03/21 11:13:31;;;;;;;2.40;0.80;;;10.20;54.40;;;;;;4975280;28;20031;-73
2022/03/21 11:15:57;;;;;;;5.05;0.90;;;10.20;54.40;;;;;;4975229;28;20023;-73
2022/03/21 11:18:25;;;;;;;2.97;0.93;;;10.10;54.00;;;;;;4975212;28;20117;-73
2022/03/21 11:20:52;;;;;;;2.03;0.80;;;10.10;54.40;;;;;;4975309;28;20035;-74
2022/03/21 11:23:21;;;;;;;12.07;1.10;;;10.20;54.70;;;;;;4975236;28;20062;-73
2022/03/21 11:26:04;;;;;;;3.50;0.90;;;10.10;54.80;;;;;;4974749;28;20042;-71
2022/03/21 11:28:47;;;;;;;13.27;1.80;;;10.10;54.70;;;;;;4975069;28;20058;-69
2022/03/21 11:31:38;;;;;;;13.55;1.40;;;10.10;54.50;;;;;;4975099;28;20077;-69
2022/03/21 11:34:30;;;;;;;5.82;0.90;;;10.10;54.70;;;;;;4975199;28;20031;-68
2022/03/21 11:36:57;;;;;;;3.70;0.80;;;10.10;54.10;;;;;;4974921;28;20046;-69
2022/03/21 11:39:24;;;;;;;2.83;1.02;;;10.10;54.20;;;;;;4974913;28;20056;-68
2022/03/21 11:42:11;;;;;;;20.70;1.58;;;10.10;54.50;;;;;;4975062;28;20023;-69
2022/03/21 11:44:38;;;;;;;3.17;1.08;;;10.10;55.30;;;;;;4974625;28;20548;-69
2022/03/21 11:47:28;;;;;;;13.88;2.97;;;10.10;55.20;;;;;;4974675;28;20106;-69
2022/03/21 11:49:56;;;;;;;6.32;1.10;;;10.20;55.30;;;;;;4975024;28;20030;-68
2022/03/21 11:52:23;;;;;;;5.38;1.10;;;10.10;55.00;;;;;;4974849;28;20159;-69
2022/03/21 11:54:49;;;;;;;3.17;0.85;;;10.20;55.20;;;;;;4974295;28;20414;-69
2022/03/21 11:57:18;;;;;;;3.33;1.08;;;10.20;55.20;;;;;;4974658;28;20053;-69
2022/03/21 11:59:47;;;;;;;18.73;1.60;;;10.20;55.10;;;;;;4974235;28;20037;-69
2022/03/21 12:02:13;;;;;;;9.77;0.95;;;10.20;55.60;;;;;;4974405;28;20025;-70
2022/03/21 12:04:55;;;;;;;8.02;1.08;;;10.20;55.30;;;;;;4974100;28;20031;-70
2022/03/21 12:07:21;;;;;;;11.25;1.33;;;10.20;55.20;;;;;;4974735;28;20042;-69
2022/03/21 12:09:54;;;;;;;6.25;1.10;;;10.20;55.40;;;;;;4974225;28;20027;-69
2022/03/21 12:12:22;;;;;;;5.43;1.00;;;10.20;55.80;;;;;;4974696;28;20098;-69
2022/03/21 12:14:56;;;;;;;14.05;1.60;;;10.10;55.20;;;;;;4974238;28;20023;-69
2022/03/21 12:17:22;;;;;;;8.82;1.27;;;10.10;55.50;;;;;;4974200;28;20474;-70
2022/03/21 12:19:47;;;;;;;6.30;1.48;;;10.10;55.70;;;;;;4974047;28;20026;-68
2022/03/21 12:22:37;;;;;;;11.45;1.10;;;10.10;55.60;;;;;;4973844;28;20019;-70
2022/03/21 12:25:13;;;;;;;3.25;1.17;;;10.10;56.00;;;;;;4974161;28;20034;-69
2022/03/21 12:27:47;;;;;;;3.95;1.20;;;10.10;55.90;;;;;;4973891;28;20026;-74
2022/03/21 12:30:29;;;;;;;7.18;1.00;;;10.10;55.70;;;;;;4973577;28;20030;-71
2022/03/21 12:33:06;;;;;;;8.73;1.40;;;10.20;62.80;;;;;;4973913;28;20027;-72
2022/03/21 12:35:32;;;;;;;35.03;1.90;;;11.20;69.10;;;;;;4972433;28;20069;-72
2022/03/21 12:38:09;;;;;;;1.83;0.80;;;11.20;56.50;;;;;;4973541;28;20074;-72
2022/03/21 12:40:38;;;;;;;6.20;1.33;;;10.80;55.30;;;;;;4972260;28;20118;-72
2022/03/21 12:43:05;;;;;;;6.28;1.10;;;10.60;55.40;;;;;;4973824;28;20023;-72
2022/03/21 12:45:31;;;;;;;3.40;0.85;;;10.40;55.10;;;;;;4973412;28;20106;-72
2022/03/21 12:48:08;;;;;;;3.88;1.10;;;10.30;55.30;;;;;;4973533;28;20574;-72
2022/03/21 12:50:35;;;;;;;31.48;2.90;;;10.30;55.90;;;;;;4973312;28;20030;-72
2022/03/21 12:53:03;;;;;;;3.80;1.20;;;10.20;55.70;;;;;;4973289;28;20117;-72
2022/03/21 12:55:30;;;;;;;7.35;1.02;;;10.20;55.60;;;;;;4973392;28;20038;-72
2022/03/21 12:58:01;;;;;;;9.82;1.58;;;10.20;56.30;;;;;;4973264;28;20490;-72
2022/03/21 13:00:34;;;;;;;12.75;1.35;;;10.20;55.00;;;;;;4973571;28;20031;-72
2022/03/21 13:03:13;;;;;;;11.45;1.23;;;10.20;55.10;;;;;;4973529;28;20110;-70
2022/03/21 13:11:36;;;;;;;24.63;2.35;;;10.60;54.70;;;;;;4973774;28;20037;-72
2022/03/21 13:14:15;;;;;;;5.55;1.27;;;10.40;55.00;;;;;;4973275;28;20022;-72
2022/03/21 13:16:49;;;;;;;3.90;1.03;;;10.30;54.60;;;;;;4972980;28;20039;-72
2022/03/21 13:19:27;;;;;;;3.33;0.98;;;10.20;54.30;;;;;;4973309;28;20031;-71
2022/03/21 13:21:58;;;;;;;5.13;1.10;;;10.20;54.60;;;;;;4973131;28;20058;-72
2022/03/21 13:24:50;;;;;;;9.18;1.83;;;10.10;54.80;;;;;;4973077;28;20023;-72
2022/03/21 13:27:17;;;;;;;3.97;1.50;;;10.10;55.20;;;;;;4973292;28;20382;-72
2022/03/21 13:29:53;;;;;;;4.03;1.17;;;10.10;54.60;;;;;;4972887;28;20117;-72
2022/03/21 13:32:19;;;;;;;6.40;1.10;;;10.10;55.30;;;;;;4973232;28;20030;-72
2022/03/21 13:34:53;;;;;;;6.72;1.10;;;10.10;56.30;;;;;;4972050;28;20035;-72
2022/03/21 13:37:24;;;;;;;9.40;1.38;;;10.10;55.10;;;;;;4972915;28;20621;-72
2022/03/21 13:39:59;;;;;;;2.17;0.95;;;10.10;55.20;;;;;;4972410;28;20033;-72
2022/03/21 13:42:25;;;;;;;4.43;0.90;;;10.10;55.10;;;;;;4973184;28;20509;-72
2022/03/21 13:44:53;;;;;;;7.97;1.50;;;10.10;55.10;;;;;;4972862;28;20023;-72
2022/03/21 13:47:19;;;;;;;3.25;1.02;;;10.10;55.50;;;;;;4972644;28;20038;-72
2022/03/21 13:49:52;;;;;;;8.35;1.13;;;10.10;54.50;;;;;;4972546;28;20046;-72
2022/03/21 13:52:49;;;;;;;7.28;1.10;;;10.10;54.50;;;;;;4971439;28;20117;-72
2022/03/21 13:55:18;;;;;;;11.25;1.20;;;10.10;54.30;;;;;;4972559;28;20038;-73
2022/03/21 13:57:44;;;;;;;3.00;1.05;;;10.00;54.60;;;;;;4972723;28;20057;-72
2022/03/21 14:00:10;;;;;;;5.20;1.05;;;10.00;54.70;;;;;;4972513;28;20475;-72
2022/03/21 14:02:41;;;;;;;4.88;1.50;;;10.00;54.20;;;;;;4971842;28;20058;-73
2022/03/21 14:05:13;;;;;;;7.53;1.10;;;10.00;54.40;;;;;;4953283;28;20495;-70
2022/03/21 14:07:39;;;;;;;7.05;1.38;;;10.00;54.40;;;;;;4956344;28;20046;-68
2022/03/21 14:10:19;;;;;;;17.70;1.60;;;10.00;54.60;;;;;;4969978;28;20022;-68
2022/03/21 14:12:53;;;;;;;6.75;1.25;;;10.00;54.70;;;;;;4971926;28;20382;-69
2022/03/21 14:15:23;;;;;;;6.70;1.00;;;10.00;55.00;;;;;;4960993;28;20075;-68
2022/03/21 14:17:49;;;;;;;4.00;0.90;;;10.00;54.60;;;;;;4952647;28;20081;-68
2022/03/21 14:20:17;;;;;;;5.35;1.05;;;10.00;54.20;;;;;;4971737;28;20035;-68
2022/03/21 14:22:45;;;;;;;5.35;0.98;;;10.00;54.80;;;;;;4970352;28;20075;-68
2022/03/21 14:27:55;;;;;;;6.53;1.00;;;10.00;56.50;;;;;;4971662;28;20045;-70
2022/03/21 14:30:21;;;;;;;33.22;2.45;;;10.40;66.30;;;;;;4968322;28;20026;-70
2022/03/21 14:32:47;;;;;;;23.85;1.85;;;11.20;68.40;;;;;;4963168;28;20032;-73